Elm Mott, TX (76640)

7:51 PM CDT on July 27, 2016 (GMT -0500)
Lacy-Lakeview | | Change Station

Elev 509 ft 31.63 °N, 97.10 °W | Updated 13 minutes ago

Mostly Cloudy
Mostly Cloudy
85.8 °F
Feels Like 93 °F
N
5.3
Wind Variable Wind from SSE

Today
High -- | Low -- °F
--% Chance of Precip.
Yesterday
High -- | Low -- °F
Precip. -- in
Pressure 29.86 in
Visibility 10.0 miles
Clouds Mostly Cloudy 4500 ft
Heat Index 93 °F
Dew Point 73 °F
Humidity 66%
Rainfall 0.00 in
Snow Depth Not available.
6:41 AM 8:27 PM
Last Quarter, 38% visible
METAR KACT 272351Z COR 17011KT 10SM VCTS BKN045 30/22 A2988 RMK AO2 LTG DSNT S-NW SLP111 T03000217 10367 20300 58001
Pressure 29.86 in
Visibility 10.0 miles
Clouds Mostly Cloudy 4500 ft
Heat Index 93 °F
Dew Point 73 °F
Humidity 66%
Rainfall 0.00 in
Snow Depth Not available.
6:41 AM 8:27 PM
Last Quarter, 38% visible
METAR KACT 272351Z COR 17011KT 10SM VCTS BKN045 30/22 A2988 RMK AO2 LTG DSNT S-NW SLP111 T03000217 10367 20300 58001

10-Day Weather Forecast

Almanac

Astronomy

Jul. 27, 2016 Rise Set
Actual Time
Civil Twilight
Nautical Twilight
Astronomical Twilight
Moon
Length of Visible Light
Length of Day
Tomorrow will be .
, % of the Moon is Illuminated

Today's Extremes

State Highs State Lows

Community

WunderPhotos

Upload Photos

1,927,986 photos uploaded!

WunderBlog® & News

Nearby

Air Quality

  Air Quality AQ Index Pollutant
Not available.

Snow Depth

Station Depth Elevation

Earthquake Activity

City Distance Mag. Time & Date
Minimum magnitude displayed is 2.5.

Coastal Water Temperatures

Place Temperature

Stations

Nearby Weather Stations

Station Location Temp. Windchill Dew Point Humidity Wind Precip. Elev Updated Type
                   

Watches & Warnings

There are currently no watches in effect.